sensor_id;sensor_type;location;lat;lon;timestamp;pressure;altitude;pressure_sealevel;temperature;humidity
60319;BME280;46163;52.306;5.634;2023-02-12T00:02:14;103665.19;;;16.50;51.83
60319;BME280;46163;52.306;5.634;2023-02-12T00:04:42;103668.88;;;16.49;51.47
60319;BME280;46163;52.306;5.634;2023-02-12T00:07:09;103660.34;;;16.45;51.73
60319;BME280;46163;52.306;5.634;2023-02-12T00:09:40;103667.56;;;16.45;51.63
60319;BME280;46163;52.306;5.634;2023-02-12T00:12:06;103663.19;;;16.44;51.66
60319;BME280;46163;52.306;5.634;2023-02-12T00:14:41;103664.22;;;16.43;51.79
60319;BME280;46163;52.306;5.634;2023-02-12T00:17:07;103675.09;;;16.41;51.58
60319;BME280;46163;52.306;5.634;2023-02-12T00:19:33;103664.53;;;16.39;51.82
60319;BME280;46163;52.306;5.634;2023-02-12T00:22:03;103670.91;;;16.38;51.62
60319;BME280;46163;52.306;5.634;2023-02-12T00:24:34;103674.63;;;16.37;51.75
60319;BME280;46163;52.306;5.634;2023-02-12T00:27:02;103673.97;;;16.35;51.67
60319;BME280;46163;52.306;5.634;2023-02-12T00:29:30;103673.28;;;16.33;51.74
60319;BME280;46163;52.306;5.634;2023-02-12T00:32:09;103684.19;;;16.32;51.56
60319;BME280;46163;52.306;5.634;2023-02-12T00:34:45;103680.66;;;16.31;51.61
60319;BME280;46163;52.306;5.634;2023-02-12T00:37:16;103680.00;;;16.29;51.76
60319;BME280;46163;52.306;5.634;2023-02-12T00:39:53;103676.66;;;16.27;51.61
60319;BME280;46163;52.306;5.634;2023-02-12T00:42:21;103685.72;;;16.26;51.57
60319;BME280;46163;52.306;5.634;2023-02-12T00:44:49;103684.06;;;16.25;51.62
60319;BME280;46163;52.306;5.634;2023-02-12T00:47:18;103681.69;;;16.22;51.46
60319;BME280;46163;52.306;5.634;2023-02-12T00:49:43;103685.22;;;16.23;51.66
60319;BME280;46163;52.306;5.634;2023-02-12T00:52:09;103680.19;;;16.20;51.52
60319;BME280;46163;52.306;5.634;2023-02-12T00:54:34;103685.56;;;16.20;51.71
60319;BME280;46163;52.306;5.634;2023-02-12T00:57:00;103682.03;;;16.19;51.64
60319;BME280;46163;52.306;5.634;2023-02-12T00:59:26;103679.53;;;16.18;51.44
60319;BME280;46163;52.306;5.634;2023-02-12T01:01:53;103691.28;;;16.17;51.52
60319;BME280;46163;52.306;5.634;2023-02-12T01:04:19;103687.75;;;16.16;51.49
60319;BME280;46163;52.306;5.634;2023-02-12T01:06:45;103684.38;;;16.14;51.55
60319;BME280;46163;52.306;5.634;2023-02-12T01:09:11;103688.91;;;16.14;51.47
60319;BME280;46163;52.306;5.634;2023-02-12T01:11:37;103691.59;;;16.14;51.48
60319;BME280;46163;52.306;5.634;2023-02-12T01:14:11;103689.09;;;16.12;51.46
60319;BME280;46163;52.306;5.634;2023-02-12T01:16:37;103691.09;;;16.10;51.41
60319;BME280;46163;52.306;5.634;2023-02-12T01:19:03;103692.94;;;16.09;51.47
60319;BME280;46163;52.306;5.634;2023-02-12T01:21:30;103683.34;;;16.07;51.40
60319;BME280;46163;52.306;5.634;2023-02-12T01:23:57;103687.91;;;16.06;51.54
60319;BME280;46163;52.306;5.634;2023-02-12T01:26:23;103695.13;;;16.06;51.39
60319;BME280;46163;52.306;5.634;2023-02-12T01:28:51;103689.91;;;16.04;51.49
60319;BME280;46163;52.306;5.634;2023-02-12T01:31:20;103686.56;;;16.02;51.42
60319;BME280;46163;52.306;5.634;2023-02-12T01:33:48;103678.16;;;15.97;51.53
60319;BME280;46163;52.306;5.634;2023-02-12T01:36:13;103684.88;;;16.01;51.34
60319;BME280;46163;52.306;5.634;2023-02-12T01:38:39;103692.94;;;16.01;51.36
60319;BME280;46163;52.306;5.634;2023-02-12T01:41:12;103685.06;;;16.00;51.45
60319;BME280;46163;52.306;5.634;2023-02-12T01:43:39;103687.88;;;15.98;51.36
60319;BME280;46163;52.306;5.634;2023-02-12T01:46:06;103691.59;;;15.97;51.24
60319;BME280;46163;52.306;5.634;2023-02-12T01:48:42;103697.78;;;15.98;51.44
60319;BME280;46163;52.306;5.634;2023-02-12T01:51:11;103673.28;;;15.85;51.06
60319;BME280;46163;52.306;5.634;2023-02-12T01:53:44;103695.63;;;15.93;51.43
60319;BME280;46163;52.306;5.634;2023-02-12T01:56:11;103691.09;;;15.94;51.26
60319;BME280;46163;52.306;5.634;2023-02-12T01:58:40;103677.00;;;15.92;51.30
60319;BME280;46163;52.306;5.634;2023-02-12T02:01:10;103686.06;;;15.91;51.31
60319;BME280;46163;52.306;5.634;2023-02-12T02:03:38;103681.66;;;15.90;51.38
60319;BME280;46163;52.306;5.634;2023-02-12T02:06:15;103685.38;;;15.89;50.99
60319;BME280;46163;52.306;5.634;2023-02-12T02:08:41;103686.22;;;15.89;51.31
60319;BME280;46163;52.306;5.634;2023-02-12T02:11:07;103681.00;;;15.88;51.15
60319;BME280;46163;52.306;5.634;2023-02-12T02:13:51;103678.66;;;15.85;51.13
60319;BME280;46163;52.306;5.634;2023-02-12T02:16:37;103675.97;;;15.85;51.33
60319;BME280;46163;52.306;5.634;2023-02-12T02:22:18;103681.34;;;15.85;51.30
60319;BME280;46163;52.306;5.634;2023-02-12T02:30:42;103679.31;;;15.78;51.11
60319;BME280;46163;52.306;5.634;2023-02-12T02:33:23;103676.63;;;15.78;51.17
60319;BME280;46163;52.306;5.634;2023-02-12T02:43:32;103671.59;;;15.75;51.24
60319;BME280;46163;52.306;5.634;2023-02-12T02:46:42;103668.94;;;15.75;51.04
60319;BME280;46163;52.306;5.634;2023-02-12T02:49:14;103665.56;;;15.73;51.04
60319;BME280;46163;52.306;5.634;2023-02-12T02:51:47;103661.88;;;15.74;51.07
60319;BME280;46163;52.306;5.634;2023-02-12T02:56:42;103655.81;;;15.72;51.08
60319;BME280;46163;52.306;5.634;2023-02-12T02:59:12;103653.31;;;15.71;51.01
60319;BME280;46163;52.306;5.634;2023-02-12T03:01:53;103648.78;;;15.71;51.10
60319;BME280;46163;52.306;5.634;2023-02-12T03:04:25;103657.00;;;15.70;51.02
60319;BME280;46163;52.306;5.634;2023-02-12T03:07:00;103651.78;;;15.68;51.04
60319;BME280;46163;52.306;5.634;2023-02-12T03:09:35;103651.78;;;15.68;51.05
60319;BME280;46163;52.306;5.634;2023-02-12T03:12:07;103645.75;;;15.66;50.96
60319;BME280;46163;52.306;5.634;2023-02-12T03:14:37;103647.59;;;15.66;51.00
60319;BME280;46163;52.306;5.634;2023-02-12T03:17:13;103644.09;;;15.65;51.00
60319;BME280;46163;52.306;5.634;2023-02-12T03:19:52;103642.25;;;15.66;50.94
60319;BME280;46163;52.306;5.634;2023-02-12T03:22:26;103642.41;;;15.64;50.88
60319;BME280;46163;52.306;5.634;2023-02-12T03:24:56;103640.69;;;15.63;50.80
60319;BME280;46163;52.306;5.634;2023-02-12T03:27:32;103655.84;;;15.64;50.94
60319;BME280;46163;52.306;5.634;2023-02-12T03:30:00;103656.97;;;15.62;50.81
60319;BME280;46163;52.306;5.634;2023-02-12T03:35:41;103658.00;;;15.61;50.71
60319;BME280;46163;52.306;5.634;2023-02-12T03:38:34;103655.44;;;15.59;50.83
60319;BME280;46163;52.306;5.634;2023-02-12T03:41:12;103659.13;;;15.58;50.88
60319;BME280;46163;52.306;5.634;2023-02-12T03:43:54;103663.66;;;15.58;50.87
60319;BME280;46163;52.306;5.634;2023-02-12T03:46:27;103658.47;;;15.56;50.84
60319;BME280;46163;52.306;5.634;2023-02-12T03:49:10;103661.16;;;15.56;50.90
60319;BME280;46163;52.306;5.634;2023-02-12T03:51:41;103660.31;;;15.55;51.00
60319;BME280;46163;52.306;5.634;2023-02-12T03:54:09;103665.81;;;15.54;50.87
60319;BME280;46163;52.306;5.634;2023-02-12T03:59:03;103660.63;;;15.52;50.94
60319;BME280;46163;52.306;5.634;2023-02-12T04:01:31;103656.25;;;15.51;50.84
60319;BME280;46163;52.306;5.634;2023-02-12T04:03:58;103663.47;;;15.51;50.76
60319;BME280;46163;52.306;5.634;2023-02-12T04:06:26;103668.00;;;15.50;50.81
60319;BME280;46163;52.306;5.634;2023-02-12T04:08:54;103664.50;;;15.50;50.82
60319;BME280;46163;52.306;5.634;2023-02-12T04:17:08;103670.03;;;15.48;50.72
60319;BME280;46163;52.306;5.634;2023-02-12T04:27:59;103679.59;;;15.51;50.97
60319;BME280;46163;52.306;5.634;2023-02-12T04:30:41;103688.31;;;15.53;50.68
60319;BME280;46163;52.306;5.634;2023-02-12T04:33:11;103686.81;;;15.59;50.66
60319;BME280;46163;52.306;5.634;2023-02-12T04:38:10;103696.44;;;15.69;50.50
60319;BME280;46163;52.306;5.634;2023-02-12T04:40:39;103702.00;;;15.76;50.28
60319;BME280;46163;52.306;5.634;2023-02-12T04:43:05;103701.16;;;15.83;50.38
60319;BME280;46163;52.306;5.634;2023-02-12T04:45:34;103702.19;;;15.91;49.99
60319;BME280;46163;52.306;5.634;2023-02-12T04:48:01;103699.66;;;15.97;49.91
60319;BME280;46163;52.306;5.634;2023-02-12T04:50:41;103697.81;;;16.06;49.75
60319;BME280;46163;52.306;5.634;2023-02-12T04:53:07;103698.63;;;16.15;49.74
60319;BME280;46163;52.306;5.634;2023-02-12T04:55:33;103702.03;;;16.25;49.38
60319;BME280;46163;52.306;5.634;2023-02-12T04:57:58;103696.47;;;16.34;49.15
60319;BME280;46163;52.306;5.634;2023-02-12T05:00:24;103693.78;;;16.43;48.88
60319;BME280;46163;52.306;5.634;2023-02-12T05:02:49;103702.50;;;16.53;48.97
60319;BME280;46163;52.306;5.634;2023-02-12T05:05:15;103699.78;;;16.61;48.63
60319;BME280;46163;52.306;5.634;2023-02-12T05:07:41;103688.88;;;16.71;48.61
60319;BME280;46163;52.306;5.634;2023-02-12T05:10:07;103696.91;;;16.79;48.41
60319;BME280;46163;52.306;5.634;2023-02-12T05:12:32;103700.75;;;16.84;48.22
60319;BME280;46163;52.306;5.634;2023-02-12T05:14:58;103692.00;;;16.90;48.05
60319;BME280;46163;52.306;5.634;2023-02-12T05:17:33;103699.19;;;16.98;47.62
60319;BME280;46163;52.306;5.634;2023-02-12T05:20:11;103692.31;;;17.04;47.72
60319;BME280;46163;52.306;5.634;2023-02-12T05:22:40;103702.34;;;17.10;47.73
60319;BME280;46163;52.306;5.634;2023-02-12T05:25:09;103709.91;;;17.14;47.59
60319;BME280;46163;52.306;5.634;2023-02-12T05:27:39;103702.31;;;17.18;47.54
60319;BME280;46163;52.306;5.634;2023-02-12T05:30:07;103693.91;;;17.21;47.43
60319;BME280;46163;52.306;5.634;2023-02-12T05:32:37;103702.28;;;17.26;47.30
60319;BME280;46163;52.306;5.634;2023-02-12T05:35:06;103700.09;;;17.30;47.33
60319;BME280;46163;52.306;5.634;2023-02-12T05:37:49;103707.63;;;17.34;47.24
60319;BME280;46163;52.306;5.634;2023-02-12T05:40:15;103702.88;;;17.36;47.14
60319;BME280;46163;52.306;5.634;2023-02-12T05:42:43;103706.94;;;17.40;47.05
60319;BME280;46163;52.306;5.634;2023-02-12T05:45:08;103709.06;;;17.45;46.94
60319;BME280;46163;52.306;5.634;2023-02-12T05:47:34;103710.59;;;17.47;46.96
60319;BME280;46163;52.306;5.634;2023-02-12T05:49:59;103705.69;;;17.51;46.79
60319;BME280;46163;52.306;5.634;2023-02-12T05:52:24;103716.91;;;17.55;46.83
60319;BME280;46163;52.306;5.634;2023-02-12T05:54:50;103716.41;;;17.59;46.81
60319;BME280;46163;52.306;5.634;2023-02-12T05:57:15;103711.66;;;17.61;46.70
60319;BME280;46163;52.306;5.634;2023-02-12T05:59:41;103714.88;;;17.65;46.61
60319;BME280;46163;52.306;5.634;2023-02-12T06:02:06;103710.78;;;17.69;46.83
60319;BME280;46163;52.306;5.634;2023-02-12T06:04:32;103712.50;;;17.70;46.63
60319;BME280;46163;52.306;5.634;2023-02-12T06:06:59;103711.97;;;17.74;46.61
60319;BME280;46163;52.306;5.634;2023-02-12T06:09:25;103713.28;;;17.78;46.36
60319;BME280;46163;52.306;5.634;2023-02-12T06:11:51;103714.63;;;17.83;46.52
60319;BME280;46163;52.306;5.634;2023-02-12T06:14:19;103715.91;;;17.87;46.11
60319;BME280;46163;52.306;5.634;2023-02-12T06:16:46;103710.00;;;17.91;46.38
60319;BME280;46163;52.306;5.634;2023-02-12T06:19:12;103709.63;;;17.94;45.96
60319;BME280;46163;52.306;5.634;2023-02-12T06:21:37;103703.88;;;17.97;46.35
60319;BME280;46163;52.306;5.634;2023-02-12T06:24:03;103708.91;;;18.00;45.88
60319;BME280;46163;52.306;5.634;2023-02-12T06:26:29;103709.38;;;18.04;46.13
60319;BME280;46163;52.306;5.634;2023-02-12T06:28:55;103713.56;;;18.06;45.87
60319;BME280;46163;52.306;5.634;2023-02-12T06:31:24;103716.09;;;18.08;45.92
60319;BME280;46163;52.306;5.634;2023-02-12T06:33:51;103713.41;;;18.08;45.87
60319;BME280;46163;52.306;5.634;2023-02-12T06:36:17;103708.84;;;18.08;46.07
60319;BME280;46163;52.306;5.634;2023-02-12T06:38:43;103708.28;;;18.13;45.81
60319;BME280;46163;52.306;5.634;2023-02-12T06:41:09;103713.50;;;18.15;45.74
60319;BME280;46163;52.306;5.634;2023-02-12T06:43:35;103709.81;;;18.16;45.87
60319;BME280;46163;52.306;5.634;2023-02-12T06:46:00;103710.47;;;18.18;45.71
60319;BME280;46163;52.306;5.634;2023-02-12T06:48:27;103711.31;;;18.18;45.61
60319;BME280;46163;52.306;5.634;2023-02-12T06:50:52;103713.81;;;18.20;45.95
60319;BME280;46163;52.306;5.634;2023-02-12T06:53:18;103719.19;;;18.20;45.64
60319;BME280;46163;52.306;5.634;2023-02-12T06:55:43;103717.53;;;18.19;45.70
60319;BME280;46163;52.306;5.634;2023-02-12T06:58:09;103713.63;;;18.21;45.63
60319;BME280;46163;52.306;5.634;2023-02-12T07:00:34;103718.66;;;18.24;45.62
60319;BME280;46163;52.306;5.634;2023-02-12T07:03:00;103722.19;;;18.25;45.51
60319;BME280;46163;52.306;5.634;2023-02-12T07:05:25;103729.25;;;18.26;45.79
60319;BME280;46163;52.306;5.634;2023-02-12T07:07:51;103728.44;;;18.25;45.71
60319;BME280;46163;52.306;5.634;2023-02-12T07:10:17;103737.34;;;18.26;46.06
60319;BME280;46163;52.306;5.634;2023-02-12T07:12:42;103729.25;;;18.26;45.98
60319;BME280;46163;52.306;5.634;2023-02-12T07:15:09;103727.41;;;18.26;46.18
60319;BME280;46163;52.306;5.634;2023-02-12T07:17:35;103736.31;;;18.27;46.19
60319;BME280;46163;52.306;5.634;2023-02-12T07:20:00;103736.13;;;18.28;46.18
60319;BME280;46163;52.306;5.634;2023-02-12T07:22:26;103736.13;;;18.28;46.07
60319;BME280;46163;52.306;5.634;2023-02-12T07:24:51;103730.28;;;18.25;46.15
60319;BME280;46163;52.306;5.634;2023-02-12T07:27:17;103744.03;;;18.30;46.13
60319;BME280;46163;52.306;5.634;2023-02-12T07:29:42;103742.19;;;18.30;46.21
60319;BME280;46163;52.306;5.634;2023-02-12T07:32:08;103743.84;;;18.31;46.36
60319;BME280;46163;52.306;5.634;2023-02-12T07:34:33;103749.44;;;18.30;46.40
60319;BME280;46163;52.306;5.634;2023-02-12T07:36:59;103752.78;;;18.32;46.16
60319;BME280;46163;52.306;5.634;2023-02-12T07:39:24;103747.94;;;18.27;46.27
60319;BME280;46163;52.306;5.634;2023-02-12T07:41:50;103753.81;;;18.31;46.33
60319;BME280;46163;52.306;5.634;2023-02-12T07:44:16;103754.81;;;18.30;46.40
60319;BME280;46163;52.306;5.634;2023-02-12T07:46:44;103766.09;;;18.33;46.52
60319;BME280;46163;52.306;5.634;2023-02-12T07:49:19;103773.31;;;18.33;46.44
60319;BME280;46163;52.306;5.634;2023-02-12T07:51:45;103768.13;;;18.31;46.45
60319;BME280;46163;52.306;5.634;2023-02-12T07:56:48;103760.88;;;18.32;46.67
60319;BME280;46163;52.306;5.634;2023-02-12T07:59:16;103758.16;;;18.32;46.67
60319;BME280;46163;52.306;5.634;2023-02-12T08:01:45;103767.94;;;18.33;46.72
60319;BME280;46163;52.306;5.634;2023-02-12T08:04:13;103774.19;;;18.33;46.70
60319;BME280;46163;52.306;5.634;2023-02-12T08:06:41;103776.22;;;18.31;46.89
60319;BME280;46163;52.306;5.634;2023-02-12T08:09:08;103787.81;;;18.32;46.87
60319;BME280;46163;52.306;5.634;2023-02-12T08:11:35;103777.78;;;18.26;46.99
60319;BME280;46163;52.306;5.634;2023-02-12T08:14:01;103787.00;;;18.31;46.91
60319;BME280;46163;52.306;5.634;2023-02-12T08:16:28;103789.69;;;18.31;46.86
60319;BME280;46163;52.306;5.634;2023-02-12T08:18:54;103805.69;;;18.33;46.59
60319;BME280;46163;52.306;5.634;2023-02-12T08:21:24;103793.22;;;18.32;46.86
60319;BME280;46163;52.306;5.634;2023-02-12T08:23:50;103788.66;;;18.32;46.94
60319;BME280;46163;52.306;5.634;2023-02-12T08:26:21;103792.38;;;18.31;46.81
60319;BME280;46163;52.306;5.634;2023-02-12T08:28:49;103796.94;;;18.31;47.04
60319;BME280;46163;52.306;5.634;2023-02-12T08:31:26;103802.97;;;18.33;47.03
60319;BME280;46163;52.306;5.634;2023-02-12T08:33:53;103811.06;;;18.33;47.15
60319;BME280;46163;52.306;5.634;2023-02-12T08:36:21;103810.91;;;18.34;47.10
60319;BME280;46163;52.306;5.634;2023-02-12T08:38:48;103813.75;;;18.33;47.26
60319;BME280;46163;52.306;5.634;2023-02-12T08:41:19;103810.06;;;18.34;47.26
60319;BME280;46163;52.306;5.634;2023-02-12T08:43:44;103818.16;;;18.34;47.38
60319;BME280;46163;52.306;5.634;2023-02-12T08:46:19;103818.16;;;18.34;47.48
60319;BME280;46163;52.306;5.634;2023-02-12T08:48:45;103819.16;;;18.33;47.37
60319;BME280;46163;52.306;5.634;2023-02-12T08:51:28;103825.22;;;18.35;47.54
60319;BME280;46163;52.306;5.634;2023-02-12T08:53:57;103826.91;;;18.36;47.62
60319;BME280;46163;52.306;5.634;2023-02-12T08:56:23;103822.34;;;18.36;47.40
60319;BME280;46163;52.306;5.634;2023-02-12T08:58:50;103831.94;;;18.39;47.41
60319;BME280;46163;52.306;5.634;2023-02-12T09:01:21;103831.94;;;18.39;47.40
60319;BME280;46163;52.306;5.634;2023-02-12T09:03:47;103821.75;;;18.26;47.48
60319;BME280;46163;52.306;5.634;2023-02-12T09:06:15;103827.09;;;18.34;47.26
60319;BME280;46163;52.306;5.634;2023-02-12T09:08:41;103823.72;;;18.32;47.39
60319;BME280;46163;52.306;5.634;2023-02-12T09:11:10;103834.22;;;18.27;47.52
60319;BME280;46163;52.306;5.634;2023-02-12T09:13:37;103827.97;;;18.27;47.53
60319;BME280;46163;52.306;5.634;2023-02-12T09:16:04;103827.97;;;18.27;47.60
60319;BME280;46163;52.306;5.634;2023-02-12T09:18:30;103826.31;;;18.26;47.72
60319;BME280;46163;52.306;5.634;2023-02-12T09:21:01;103821.94;;;18.25;47.93
60319;BME280;46163;52.306;5.634;2023-02-12T09:23:27;103822.94;;;18.24;47.94
60319;BME280;46163;52.306;5.634;2023-02-12T09:25:52;103823.81;;;18.24;48.03
60319;BME280;46163;52.306;5.634;2023-02-12T09:28:18;103832.72;;;18.25;48.06
60319;BME280;46163;52.306;5.634;2023-02-12T09:30:43;103831.22;;;18.22;47.79
60319;BME280;46163;52.306;5.634;2023-02-12T09:33:10;103842.50;;;18.26;48.14
60319;BME280;46163;52.306;5.634;2023-02-12T09:35:37;103844.34;;;18.25;47.89
60319;BME280;46163;52.306;5.634;2023-02-12T09:38:03;103839.78;;;18.26;48.07
60319;BME280;46163;52.306;5.634;2023-02-12T09:46:50;103829.84;;;18.26;47.90
60319;BME280;46163;52.306;5.634;2023-02-12T09:49:53;103837.09;;;18.26;47.81
60319;BME280;46163;52.306;5.634;2023-02-12T09:55:43;103834.41;;;18.26;47.93
60319;BME280;46163;52.306;5.634;2023-02-12T09:59:05;103830.88;;;18.25;47.71
60319;BME280;46163;52.306;5.634;2023-02-12T10:01:10;103824.63;;;18.25;47.84
60319;BME280;46163;52.306;5.634;2023-02-12T10:03:37;103812.88;;;18.18;47.76
60319;BME280;46163;52.306;5.634;2023-02-12T10:06:05;103830.69;;;18.27;47.95
60319;BME280;46163;52.306;5.634;2023-02-12T10:27:48;103832.00;;;18.31;47.63
60319;BME280;46163;52.306;5.634;2023-02-12T10:30:25;103832.63;;;18.33;47.51
60319;BME280;46163;52.306;5.634;2023-02-12T10:33:00;103831.81;;;18.32;47.74
60319;BME280;46163;52.306;5.634;2023-02-12T10:35:28;103837.19;;;18.32;47.62
60319;BME280;46163;52.306;5.634;2023-02-12T10:37:57;103828.94;;;18.34;47.68
60319;BME280;46163;52.306;5.634;2023-02-12T10:40:28;103832.63;;;18.33;47.54
60319;BME280;46163;52.306;5.634;2023-02-12T10:42:57;103838.03;;;18.33;47.48
60319;BME280;46163;52.306;5.634;2023-02-12T10:45:33;103836.03;;;18.35;47.60
60319;BME280;46163;52.306;5.634;2023-02-12T10:48:12;103836.03;;;18.35;47.37
60319;BME280;46163;52.306;5.634;2023-02-12T10:51:01;103832.94;;;18.38;47.45
60319;BME280;46163;52.306;5.634;2023-02-12T10:53:35;103834.81;;;18.38;47.31
60319;BME280;46163;52.306;5.634;2023-02-12T10:56:19;103846.44;;;18.38;47.57
60319;BME280;46163;52.306;5.634;2023-02-12T11:01:21;103824.28;;;18.28;47.58
60319;BME280;46163;52.306;5.634;2023-02-12T11:03:47;103832.31;;;18.36;47.47
60319;BME280;46163;52.306;5.634;2023-02-12T11:06:16;103837.88;;;18.34;47.53
60319;BME280;46163;52.306;5.634;2023-02-12T11:08:45;103836.19;;;18.33;47.56
60319;BME280;46163;52.306;5.634;2023-02-12T11:11:30;103837.38;;;18.31;47.66
60319;BME280;46163;52.306;5.634;2023-02-12T11:14:20;103844.63;;;18.30;47.44
60319;BME280;46163;52.306;5.634;2023-02-12T11:16:52;103838.41;;;18.30;47.52
60319;BME280;46163;52.306;5.634;2023-02-12T11:21:45;103825.75;;;18.30;47.38
60319;BME280;46163;52.306;5.634;2023-02-12T11:24:33;103820.38;;;18.30;47.18
60319;BME280;46163;52.306;5.634;2023-02-12T11:29:40;103819.53;;;18.30;46.98
60319;BME280;46163;52.306;5.634;2023-02-12T11:32:07;103819.72;;;18.28;47.01
60319;BME280;46163;52.306;5.634;2023-02-12T11:34:33;103813.66;;;18.26;46.99
60319;BME280;46163;52.306;5.634;2023-02-12T11:36:59;103821.75;;;18.26;47.23
60319;BME280;46163;52.306;5.634;2023-02-12T11:39:32;103824.28;;;18.28;47.22
60319;BME280;46163;52.306;5.634;2023-02-12T11:44:26;103810.13;;;18.26;47.58
60319;BME280;46163;52.306;5.634;2023-02-12T11:46:56;103803.06;;;18.25;47.66
60319;BME280;46163;52.306;5.634;2023-02-12T11:49:32;103811.81;;;18.27;47.65
60319;BME280;46163;52.306;5.634;2023-02-12T11:52:00;103807.25;;;18.27;47.87
60319;BME280;46163;52.306;5.634;2023-02-12T11:54:29;103811.63;;;18.28;47.51
60319;BME280;46163;52.306;5.634;2023-02-12T11:56:58;103813.47;;;18.28;47.69
60319;BME280;46163;52.306;5.634;2023-02-12T11:59:34;103802.69;;;18.28;47.50
60319;BME280;46163;52.306;5.634;2023-02-12T12:02:24;103801.03;;;18.27;47.48
60319;BME280;46163;52.306;5.634;2023-02-12T12:04:54;103809.31;;;18.25;47.73
60319;BME280;46163;52.306;5.634;2023-02-12T12:07:28;103808.47;;;18.25;47.56
60319;BME280;46163;52.306;5.634;2023-02-12T12:10:24;103801.56;;;18.22;48.08
60319;BME280;46163;52.306;5.634;2023-02-12T12:12:55;103795.97;;;18.24;48.08
60319;BME280;46163;52.306;5.634;2023-02-12T12:15:32;103799.53;;;18.24;47.76
60319;BME280;46163;52.306;5.634;2023-02-12T12:18:33;103798.84;;;18.22;47.75
60319;BME280;46163;52.306;5.634;2023-02-12T12:21:33;103792.63;;;18.22;48.09
60319;BME280;46163;52.306;5.634;2023-02-12T12:24:25;103790.13;;;18.20;47.85
60319;BME280;46163;52.306;5.634;2023-02-12T12:27:07;103793.84;;;18.19;47.80
60319;BME280;46163;52.306;5.634;2023-02-12T12:29:58;103792.16;;;18.18;47.98
60319;BME280;46163;52.306;5.634;2023-02-12T12:32:33;103788.81;;;18.16;48.17
60319;BME280;46163;52.306;5.634;2023-02-12T12:35:01;103781.91;;;18.14;48.21
60319;BME280;46163;52.306;5.634;2023-02-12T12:38:01;103782.09;;;18.12;48.41
60319;BME280;46163;52.306;5.634;2023-02-12T12:40:37;103786.81;;;18.10;48.44
60319;BME280;46163;52.306;5.634;2023-02-12T12:43:20;103778.94;;;18.08;48.62
60319;BME280;46163;52.306;5.634;2023-02-12T12:54:12;103782.31;;;18.02;48.65
60319;BME280;46163;52.306;5.634;2023-02-12T13:01:58;103776.28;;;18.00;48.90
60319;BME280;46163;52.306;5.634;2023-02-12T13:04:43;103770.06;;;18.00;49.12
60319;BME280;46163;52.306;5.634;2023-02-12T13:10:10;103767.84;;;18.03;49.16
60319;BME280;46163;52.306;5.634;2023-02-12T13:12:51;103762.25;;;18.05;49.00
60319;BME280;46163;52.306;5.634;2023-02-12T13:26:21;103748.06;;;18.11;48.97
60319;BME280;46163;52.306;5.634;2023-02-12T13:28:57;103741.47;;;18.14;48.84
60319;BME280;46163;52.306;5.634;2023-02-12T13:31:27;103741.28;;;18.15;49.11
60319;BME280;46163;52.306;5.634;2023-02-12T13:34:00;103738.44;;;18.17;49.07
60319;BME280;46163;52.306;5.634;2023-02-12T13:36:26;103741.78;;;18.19;49.11
60319;BME280;46163;52.306;5.634;2023-02-12T13:39:14;103741.78;;;18.19;48.95
60319;BME280;46163;52.306;5.634;2023-02-12T13:41:44;103740.75;;;18.20;49.01
60319;BME280;46163;52.306;5.634;2023-02-12T13:44:21;103735.38;;;18.20;49.02
60319;BME280;46163;52.306;5.634;2023-02-12T13:50:03;103732.88;;;18.18;48.80
60319;BME280;46163;52.306;5.634;2023-02-12T13:55:25;103729.53;;;18.16;49.22
60319;BME280;46163;52.306;5.634;2023-02-12T14:01:04;103728.31;;;18.19;49.40
60319;BME280;46163;52.306;5.634;2023-02-12T14:03:33;103727.09;;;18.21;49.20
60319;BME280;46163;52.306;5.634;2023-02-12T14:06:17;103727.28;;;18.20;49.29
60319;BME280;46163;52.306;5.634;2023-02-12T14:08:49;103719.19;;;18.20;49.32
60319;BME280;46163;52.306;5.634;2023-02-12T14:11:17;103722.91;;;18.19;49.50
60319;BME280;46163;52.306;5.634;2023-02-12T14:13:59;103715.84;;;18.18;49.46
60319;BME280;46163;52.306;5.634;2023-02-12T14:22:01;103713.88;;;18.12;49.48
60319;BME280;46163;52.306;5.634;2023-02-12T14:24:48;103698.97;;;18.01;49.64
60319;BME280;46163;52.306;5.634;2023-02-12T14:27:34;103711.19;;;18.12;49.47
60319;BME280;46163;52.306;5.634;2023-02-12T14:37:58;103705.31;;;18.08;49.62
60319;BME280;46163;52.306;5.634;2023-02-12T14:43:01;103711.56;;;18.08;49.56
60319;BME280;46163;52.306;5.634;2023-02-12T14:45:34;103715.28;;;18.07;49.60
60319;BME280;46163;52.306;5.634;2023-02-12T14:48:02;103711.56;;;18.08;49.61
60319;BME280;46163;52.306;5.634;2023-02-12T14:50:36;103716.09;;;18.08;49.67
60319;BME280;46163;52.306;5.634;2023-02-12T14:53:07;103708.84;;;18.08;49.83
60319;BME280;46163;52.306;5.634;2023-02-12T14:55:39;103695.25;;;18.02;49.90
60319;BME280;46163;52.306;5.634;2023-02-12T14:58:16;103713.22;;;18.10;49.80
60319;BME280;46163;52.306;5.634;2023-02-12T15:00:45;103711.19;;;18.12;49.65
60319;BME280;46163;52.306;5.634;2023-02-12T15:05:41;103703.66;;;18.07;49.69
60319;BME280;46163;52.306;5.634;2023-02-12T15:08:21;103713.88;;;18.12;49.89
60319;BME280;46163;52.306;5.634;2023-02-12T15:14:05;103712.66;;;18.14;49.53
60319;BME280;46163;52.306;5.634;2023-02-12T15:21:44;103707.47;;;18.13;49.26
60319;BME280;46163;52.306;5.634;2023-02-12T15:24:12;103708.28;;;18.13;49.48
60319;BME280;46163;52.306;5.634;2023-02-12T15:26:41;103705.78;;;18.12;49.30
60319;BME280;46163;52.306;5.634;2023-02-12T15:29:28;103703.09;;;18.12;49.55
60319;BME280;46163;52.306;5.634;2023-02-12T15:32:01;103701.22;;;18.12;49.49
60319;BME280;46163;52.306;5.634;2023-02-12T15:34:31;103702.25;;;18.11;49.47
60319;BME280;46163;52.306;5.634;2023-02-12T15:36:59;103704.94;;;18.11;49.37